Time;durP1;ratioP1;P1;durP2;ratioP2;P2;SDS_P1;SDS_P2;PMS_P1;PMS_P2;Temp;Humidity;BMP_temperature;BMP_pressure;BME280_temperature;BME280_humidity;BME280_pressure;Samples;Min_cycle;Max_cycle;Signal;HPM_P1;HPM_P2
2022/12/26 00:01:50;;;;;;;61.13;56.38;;;;;;;;;;5030333;28;20052;-63
2022/12/26 00:04:16;;;;;;;60.67;55.92;;;;;;;;;;5029422;28;20040;-65
2022/12/26 00:06:42;;;;;;;62.03;57.13;;;;;;;;;;5012564;28;20026;-62
2022/12/26 00:09:08;;;;;;;62.15;57.17;;;;;;;;;;5030801;28;20026;-63
2022/12/26 00:11:35;;;;;;;62.47;57.40;;;;;;;;;;5013471;28;20030;-63
2022/12/26 00:14:04;;;;;;;61.95;56.92;;;;;;;;;;5028625;28;20029;-59
2022/12/26 00:16:30;;;;;;;61.55;56.50;;;;;;;;;;5030692;28;20029;-62
2022/12/26 00:18:56;;;;;;;63.05;58.00;;;;;;;;;;5030613;28;20120;-63
2022/12/26 00:21:26;;;;;;;64.32;59.08;;;;;;;;;;5030930;28;20401;-62
2022/12/26 00:23:53;;;;;;;67.45;61.80;;;;;;;;;;5030032;28;20040;-61
2022/12/26 00:26:20;;;;;;;64.88;59.47;;;;;;;;;;5030687;28;20040;-65
2022/12/26 00:28:46;;;;;;;66.85;61.22;;;;;;;;;;5012840;28;20074;-62
2022/12/26 00:31:23;;;;;;;65.15;59.80;;;;;;;;;;5012922;28;20022;-63
2022/12/26 00:33:49;;;;;;;65.15;59.75;;;;;;;;;;5012083;28;20033;-62
2022/12/26 00:36:17;;;;;;;66.22;60.85;;;;;;;;;;5030618;28;20548;-63
2022/12/26 00:38:43;;;;;;;67.13;61.63;;;;;;;;;;5013044;28;20025;-63
2022/12/26 00:41:10;;;;;;;68.32;62.80;;;;;;;;;;5030487;28;20271;-62
2022/12/26 00:43:36;;;;;;;67.22;61.53;;;;;;;;;;5029718;28;20062;-63
2022/12/26 00:46:02;;;;;;;65.80;60.17;;;;;;;;;;5030242;28;20033;-63
2022/12/26 00:48:28;;;;;;;65.88;60.50;;;;;;;;;;5030605;28;20025;-61
2022/12/26 00:50:54;;;;;;;65.07;59.67;;;;;;;;;;5029972;28;20036;-61
2022/12/26 00:53:21;;;;;;;62.55;57.40;;;;;;;;;;5029649;28;20497;-62
2022/12/26 00:55:48;;;;;;;63.05;57.88;;;;;;;;;;5030750;28;20052;-62
2022/12/26 00:58:14;;;;;;;63.33;58.22;;;;;;;;;;5034505;28;20500;-63
2022/12/26 01:00:40;;;;;;;60.15;55.25;;;;;;;;;;5034198;28;20025;-63
2022/12/26 01:03:07;;;;;;;62.38;57.40;;;;;;;;;;5033677;28;20025;-63
2022/12/26 01:05:33;;;;;;;60.47;55.28;;;;;;;;;;5034116;28;20033;-62
2022/12/26 01:07:59;;;;;;;59.92;54.95;;;;;;;;;;5016527;28;20021;-63
2022/12/26 01:10:25;;;;;;;61.03;55.90;;;;;;;;;;5016593;28;20028;-63
2022/12/26 01:12:51;;;;;;;59.08;54.28;;;;;;;;;;5034212;28;20033;-63
2022/12/26 01:15:18;;;;;;;60.33;55.22;;;;;;;;;;5033406;28;20389;-63
2022/12/26 01:17:43;;;;;;;58.92;53.97;;;;;;;;;;5016491;28;20103;-61
2022/12/26 01:20:10;;;;;;;58.88;54.03;;;;;;;;;;5033956;28;20474;-63
2022/12/26 01:22:36;;;;;;;58.70;53.80;;;;;;;;;;5016162;28;20116;-63
2022/12/26 01:25:02;;;;;;;57.75;52.85;;;;;;;;;;5033149;28;20099;-63
2022/12/26 01:27:28;;;;;;;58.85;53.83;;;;;;;;;;5034113;28;20030;-63
2022/12/26 01:29:55;;;;;;;58.08;53.13;;;;;;;;;;5033788;28;20017;-63
2022/12/26 01:32:21;;;;;;;56.83;52.10;;;;;;;;;;5033809;28;20026;-60
2022/12/26 01:34:48;;;;;;;58.85;53.95;;;;;;;;;;5033077;28;20026;-61
2022/12/26 01:37:16;;;;;;;70.22;63.88;;;;;;;;;;5033831;28;20116;-62
2022/12/26 01:39:42;;;;;;;60.22;55.17;;;;;;;;;;5016024;28;20025;-62
2022/12/26 01:42:12;;;;;;;59.30;54.00;;;;;;;;;;5034034;28;20037;-68
2022/12/26 01:44:57;;;;;;;59.78;54.63;;;;;;;;;;5032848;28;20045;-61
2022/12/26 01:47:25;;;;;;;60.42;55.15;;;;;;;;;;5015852;28;20025;-59
2022/12/26 01:49:53;;;;;;;59.03;54.03;;;;;;;;;;5015616;28;20401;-61
2022/12/26 01:52:46;;;;;;;60.85;55.75;;;;;;;;;;5033751;28;20307;-61
2022/12/26 01:55:14;;;;;;;58.78;53.88;;;;;;;;;;5011370;28;20033;-64
2022/12/26 01:57:42;;;;;;;59.67;54.42;;;;;;;;;;5033247;28;20026;-63
2022/12/26 02:00:08;;;;;;;58.72;53.72;;;;;;;;;;5033275;28;20025;-64
2022/12/26 02:05:32;;;;;;;58.92;53.83;;;;;;;;;;5033328;28;20389;-64
2022/12/26 02:05:35;;;;;;;57.88;52.72;;;;;;;;;;5032201;28;20030;-61
2022/12/26 02:08:03;;;;;;;58.25;53.35;;;;;;;;;;5014688;28;20042;-64
2022/12/26 02:10:31;;;;;;;57.70;52.63;;;;;;;;;;5033180;28;20143;-62
2022/12/26 02:12:57;;;;;;;56.75;51.95;;;;;;;;;;5015341;28;20029;-61
2022/12/26 02:15:23;;;;;;;57.72;52.63;;;;;;;;;;5014714;28;20040;-63
2022/12/26 02:17:49;;;;;;;56.90;51.85;;;;;;;;;;5033002;28;20018;-63
2022/12/26 02:20:17;;;;;;;57.35;52.38;;;;;;;;;;5015161;28;20021;-65
2022/12/26 02:23:02;;;;;;;55.88;50.92;;;;;;;;;;5015151;28;20030;-65
2022/12/26 02:25:31;;;;;;;56.35;51.28;;;;;;;;;;5032780;28;20037;-63
2022/12/26 02:28:24;;;;;;;54.85;49.90;;;;;;;;;;5032732;28;20117;-63
2022/12/26 02:30:50;;;;;;;57.17;52.03;;;;;;;;;;5014957;28;20027;-66
2022/12/26 02:33:25;;;;;;;58.03;52.78;;;;;;;;;;5031956;28;20736;-61
2022/12/26 02:36:00;;;;;;;57.53;52.40;;;;;;;;;;5032532;28;20477;-64
2022/12/26 02:38:26;;;;;;;59.92;54.72;;;;;;;;;;5032578;28;20421;-64
2022/12/26 02:40:55;;;;;;;59.58;54.25;;;;;;;;;;5032494;28;20029;-64
2022/12/26 02:43:32;;;;;;;58.10;52.70;;;;;;;;;;5031944;28;20462;-61
2022/12/26 02:48:51;;;;;;;56.60;51.40;;;;;;;;;;5032443;28;20512;-62
2022/12/26 03:13:50;;;;;;;56.28;50.92;;;;;;;;;;5031233;28;20056;-62
2022/12/26 03:19:05;;;;;;;57.45;52.20;;;;;;;;;;5031389;28;20043;-62
2022/12/26 03:21:35;;;;;;;56.35;51.25;;;;;;;;;;5031279;28;20075;-64
2022/12/26 03:24:01;;;;;;;57.40;52.17;;;;;;;;;;5031129;28;20078;-63
2022/12/26 03:26:39;;;;;;;60.00;54.45;;;;;;;;;;5013896;28;20022;-62
2022/12/26 03:31:50;;;;;;;53.75;48.83;;;;;;;;;;5031670;28;19911;-64
2022/12/26 03:34:17;;;;;;;55.08;50.17;;;;;;;;;;5030801;28;20023;-62
2022/12/26 03:36:49;;;;;;;57.33;52.13;;;;;;;;;;5031574;28;20036;-62
2022/12/26 04:19:23;;;;;;;49.88;45.28;;;;;;;;;;5047849;28;20624;-63
2022/12/26 04:44:27;;;;;;;53.30;48.30;;;;;;;;;;5047083;28;20040;-63
2022/12/26 04:46:53;;;;;;;51.83;47.08;;;;;;;;;;5047316;28;20017;-60
2022/12/26 04:52:06;;;;;;;51.20;46.35;;;;;;;;;;5043192;28;20040;-62
2022/12/26 04:54:32;;;;;;;53.08;48.28;;;;;;;;;;5033005;28;20091;-62
2022/12/26 04:56:58;;;;;;;49.95;45.40;;;;;;;;;;5032956;28;20033;-63
2022/12/26 04:59:25;;;;;;;51.00;46.30;;;;;;;;;;5034089;28;20052;-63
2022/12/26 05:10:18;;;;;;;51.25;46.53;;;;;;;;;;5033763;28;20116;-60
2022/12/26 05:12:44;;;;;;;48.63;44.05;;;;;;;;;;5033542;28;20497;-63
2022/12/26 05:15:10;;;;;;;49.38;44.92;;;;;;;;;;5032832;28;20052;-64
2022/12/26 05:28:58;;;;;;;45.00;40.85;;;;;;;;;;5033254;28;20125;-64
2022/12/26 05:31:24;;;;;;;46.35;42.22;;;;;;;;;;5033150;28;20108;-63
2022/12/26 05:34:06;;;;;;;45.40;41.40;;;;;;;;;;5031091;28;20551;-63
2022/12/26 05:36:41;;;;;;;44.83;40.72;;;;;;;;;;5033284;28;20025;-64
2022/12/26 05:39:08;;;;;;;45.00;40.92;;;;;;;;;;5033160;28;20037;-63
2022/12/26 05:41:34;;;;;;;44.75;40.72;;;;;;;;;;5033009;28;20040;-64
2022/12/26 05:44:00;;;;;;;44.70;40.60;;;;;;;;;;5032400;28;20026;-63
2022/12/26 05:46:26;;;;;;;44.38;40.25;;;;;;;;;;5032715;28;20021;-63
2022/12/26 05:51:25;;;;;;;42.55;38.70;;;;;;;;;;5049124;22;20076;-63
2022/12/26 05:53:51;;;;;;;43.03;39.00;;;;;;;;;;5032719;28;20029;-64
2022/12/26 05:56:18;;;;;;;44.45;40.55;;;;;;;;;;5033394;28;20056;-64
2022/12/26 05:58:44;;;;;;;42.90;38.92;;;;;;;;;;5033241;28;20447;-65
2022/12/26 06:01:18;;;;;;;40.88;36.97;;;;;;;;;;5031881;28;20061;-64
2022/12/26 06:03:48;;;;;;;40.50;36.63;;;;;;;;;;5031573;28;20018;-62
2022/12/26 06:06:14;;;;;;;39.55;35.88;;;;;;;;;;5031759;28;20045;-64
2022/12/26 06:08:40;;;;;;;39.25;35.50;;;;;;;;;;5033101;28;20026;-65
2022/12/26 06:11:08;;;;;;;39.88;36.28;;;;;;;;;;5032962;28;20064;-65
2022/12/26 06:13:34;;;;;;;39.92;36.25;;;;;;;;;;5032403;28;20108;-64
2022/12/26 06:16:04;;;;;;;37.95;34.55;;;;;;;;;;5030617;28;20502;-64
2022/12/26 06:18:30;;;;;;;38.88;35.25;;;;;;;;;;5032987;28;20405;-64
2022/12/26 06:20:56;;;;;;;39.38;35.75;;;;;;;;;;5025596;28;20072;-63
2022/12/26 06:23:22;;;;;;;39.03;35.60;;;;;;;;;;5027967;28;20036;-65
2022/12/26 06:25:53;;;;;;;41.08;37.55;;;;;;;;;;5031798;28;20060;-63
2022/12/26 06:28:19;;;;;;;39.55;35.95;;;;;;;;;;5009421;28;20050;-63
2022/12/26 06:30:45;;;;;;;37.92;34.42;;;;;;;;;;5012747;28;20557;-64
2022/12/26 06:33:11;;;;;;;37.72;34.33;;;;;;;;;;4994501;28;20080;-63
2022/12/26 06:35:37;;;;;;;36.03;32.83;;;;;;;;;;5012796;28;20099;-63
2022/12/26 06:38:03;;;;;;;35.90;32.80;;;;;;;;;;5028097;28;20033;-64
2022/12/26 06:40:29;;;;;;;35.50;32.25;;;;;;;;;;5032330;28;20497;-64
2022/12/26 06:42:55;;;;;;;35.70;32.45;;;;;;;;;;5014559;28;20049;-63
2022/12/26 06:45:20;;;;;;;36.33;33.10;;;;;;;;;;5031683;28;20025;-61
2022/12/26 06:47:46;;;;;;;33.78;30.67;;;;;;;;;;5014628;28;20021;-63
2022/12/26 06:50:12;;;;;;;34.78;31.60;;;;;;;;;;5014395;28;20037;-64
2022/12/26 06:52:38;;;;;;;36.75;33.45;;;;;;;;;;5014682;28;20385;-64
2022/12/26 06:55:05;;;;;;;34.60;31.50;;;;;;;;;;4998959;28;20026;-64
2022/12/26 06:57:31;;;;;;;35.13;31.88;;;;;;;;;;5012542;28;20022;-64
2022/12/26 06:59:57;;;;;;;34.45;31.38;;;;;;;;;;4994784;28;20600;-63
2022/12/26 07:02:23;;;;;;;33.40;30.25;;;;;;;;;;5012441;28;20041;-64
2022/12/26 07:04:49;;;;;;;33.97;30.75;;;;;;;;;;5011380;28;20028;-64
2022/12/26 07:07:15;;;;;;;33.58;30.58;;;;;;;;;;4994777;28;20029;-64
2022/12/26 07:09:41;;;;;;;33.67;30.67;;;;;;;;;;5012254;28;20032;-64
2022/12/26 07:12:07;;;;;;;34.22;31.13;;;;;;;;;;4994626;28;20030;-65
2022/12/26 07:14:33;;;;;;;34.22;31.02;;;;;;;;;;5011410;28;20628;-64
2022/12/26 07:16:59;;;;;;;33.92;30.73;;;;;;;;;;5011939;28;20025;-64
2022/12/26 07:19:25;;;;;;;33.53;30.42;;;;;;;;;;5012022;28;20026;-64
2022/12/26 07:21:50;;;;;;;33.83;30.63;;;;;;;;;;5013673;28;20029;-63
2022/12/26 07:24:18;;;;;;;33.25;30.35;;;;;;;;;;5031007;28;20021;-64
2022/12/26 07:26:45;;;;;;;33.65;30.55;;;;;;;;;;5031643;28;20021;-64
2022/12/26 07:29:12;;;;;;;32.38;29.48;;;;;;;;;;5031360;28;20026;-64
2022/12/26 07:31:38;;;;;;;32.72;29.83;;;;;;;;;;5031585;28;20497;-63
2022/12/26 07:34:04;;;;;;;31.98;28.88;;;;;;;;;;5013289;28;20025;-63
2022/12/26 07:36:30;;;;;;;33.08;29.92;;;;;;;;;;5014115;28;20112;-64
2022/12/26 07:38:56;;;;;;;31.35;28.50;;;;;;;;;;5031769;28;20125;-64
2022/12/26 07:44:06;;;;;;;32.05;29.02;;;;;;;;;;5031106;28;20072;-64
2022/12/26 07:46:33;;;;;;;32.53;29.52;;;;;;;;;;5031588;28;20053;-64
2022/12/26 07:48:59;;;;;;;33.17;29.98;;;;;;;;;;5031536;28;20045;-64
2022/12/26 07:51:25;;;;;;;31.02;27.98;;;;;;;;;;5031332;28;20081;-64
2022/12/26 07:53:51;;;;;;;30.42;27.23;;;;;;;;;;5030779;28;20060;-64
2022/12/26 07:56:17;;;;;;;30.48;27.38;;;;;;;;;;5031448;28;20580;-63
2022/12/26 07:58:43;;;;;;;29.10;26.20;;;;;;;;;;5013725;28;20037;-64
2022/12/26 08:01:09;;;;;;;31.10;28.00;;;;;;;;;;5031746;28;20022;-65
2022/12/26 08:03:35;;;;;;;31.65;28.45;;;;;;;;;;5030884;28;20034;-68
2022/12/26 08:06:01;;;;;;;29.20;26.20;;;;;;;;;;5032240;28;20025;-69
2022/12/26 08:08:27;;;;;;;29.55;26.65;;;;;;;;;;5032068;28;20501;-68
2022/12/26 08:10:59;;;;;;;30.00;27.00;;;;;;;;;;5014299;28;20038;-62
2022/12/26 08:13:26;;;;;;;28.73;25.75;;;;;;;;;;5030456;28;20033;-63
2022/12/26 08:15:52;;;;;;;29.88;26.98;;;;;;;;;;5031189;28;20056;-62
2022/12/26 08:18:18;;;;;;;29.67;26.58;;;;;;;;;;5031131;28;20470;-61
2022/12/26 08:20:44;;;;;;;28.23;25.23;;;;;;;;;;5031011;28;20025;-62
2022/12/26 08:23:10;;;;;;;28.73;25.83;;;;;;;;;;5030349;28;20549;-62
2022/12/26 08:25:36;;;;;;;25.83;23.13;;;;;;;;;;5031214;28;20018;-63
2022/12/26 08:28:02;;;;;;;28.58;25.58;;;;;;;;;;5015201;28;20370;-61
2022/12/26 08:30:28;;;;;;;27.23;24.48;;;;;;;;;;5034797;28;20451;-62
2022/12/26 08:32:54;;;;;;;25.80;23.20;;;;;;;;;;5017099;28;20057;-59
2022/12/26 08:35:20;;;;;;;25.15;22.63;;;;;;;;;;5015357;28;20063;-63
2022/12/26 08:37:47;;;;;;;26.85;24.05;;;;;;;;;;5017061;28;20393;-63
2022/12/26 08:40:13;;;;;;;25.48;22.88;;;;;;;;;;5034708;28;20087;-63
2022/12/26 08:42:39;;;;;;;24.65;22.08;;;;;;;;;;5016851;28;20128;-62
2022/12/26 08:45:05;;;;;;;24.95;22.35;;;;;;;;;;5034192;28;20052;-65
2022/12/26 08:47:31;;;;;;;24.52;22.02;;;;;;;;;;5034623;28;20079;-63
2022/12/26 08:49:57;;;;;;;25.00;22.30;;;;;;;;;;5016986;28;20375;-63
2022/12/26 08:52:23;;;;;;;23.20;20.90;;;;;;;;;;5018493;28;20044;-63
2022/12/26 08:54:49;;;;;;;26.10;23.40;;;;;;;;;;5035440;28;20025;-63
2022/12/26 08:57:15;;;;;;;22.92;20.73;;;;;;;;;;5036137;28;20026;-63
2022/12/26 08:59:41;;;;;;;24.25;21.95;;;;;;;;;;5035946;28;20032;-62
2022/12/26 09:02:09;;;;;;;24.90;22.50;;;;;;;;;;5035176;28;20033;-62
2022/12/26 09:04:36;;;;;;;23.77;21.50;;;;;;;;;;5012933;28;20032;-63
2022/12/26 09:07:02;;;;;;;24.30;21.70;;;;;;;;;;4997157;28;20494;-64
2022/12/26 09:09:28;;;;;;;24.25;21.73;;;;;;;;;;5014536;28;20037;-64
2022/12/26 09:11:54;;;;;;;23.17;20.98;;;;;;;;;;4997257;28;20037;-64
2022/12/26 09:14:20;;;;;;;23.23;20.92;;;;;;;;;;5013550;28;20026;-63
2022/12/26 09:16:46;;;;;;;21.42;19.33;;;;;;;;;;5014304;28;20052;-64
2022/12/26 09:19:15;;;;;;;22.80;20.55;;;;;;;;;;4996620;28;20038;-64
2022/12/26 09:21:41;;;;;;;21.77;19.67;;;;;;;;;;5008079;28;20116;-64
2022/12/26 09:24:17;;;;;;;21.91;19.79;;;;;;;;;;4951358;28;10001854;-65
2022/12/26 09:26:43;;;;;;;22.63;20.42;;;;;;;;;;5025672;28;20312;-64
2022/12/26 09:29:10;;;;;;;22.20;20.05;;;;;;;;;;5029960;28;20406;-65
2022/12/26 09:31:37;;;;;;;22.42;20.02;;;;;;;;;;5030289;28;20075;-63
2022/12/26 09:34:06;;;;;;;20.70;18.70;;;;;;;;;;5020718;28;20041;-64
2022/12/26 09:36:34;;;;;;;20.67;18.67;;;;;;;;;;5010079;28;20040;-64
2022/12/26 09:39:00;;;;;;;21.27;19.17;;;;;;;;;;5010202;28;20092;-64
2022/12/26 09:41:32;;;;;;;20.35;18.30;;;;;;;;;;5010210;28;20037;-63
2022/12/26 09:44:07;;;;;;;20.42;18.23;;;;;;;;;;5009587;28;20478;-64
2022/12/26 09:46:48;;;;;;;19.45;17.45;;;;;;;;;;5010186;28;20474;-64
2022/12/26 09:49:29;;;;;;;19.33;17.30;;;;;;;;;;5008396;28;20490;-63
2022/12/26 09:51:57;;;;;;;18.98;17.05;;;;;;;;;;5010471;28;20061;-63
2022/12/26 09:54:23;;;;;;;20.25;17.88;;;;;;;;;;5010799;28;20029;-63
2022/12/26 09:56:50;;;;;;;20.25;16.85;;;;;;;;;;5010810;28;20482;-60
2022/12/26 09:59:18;;;;;;;18.17;16.25;;;;;;;;;;5019053;28;20025;-61
2022/12/26 10:01:47;;;;;;;19.23;16.83;;;;;;;;;;5033180;28;20100;-62
2022/12/26 10:04:19;;;;;;;20.00;17.50;;;;;;;;;;5032479;28;20099;-60
2022/12/26 10:06:48;;;;;;;21.05;16.92;;;;;;;;;;5015773;28;20017;-58
2022/12/26 10:09:33;;;;;;;18.90;16.90;;;;;;;;;;5032915;28;20033;-63
2022/12/26 10:11:59;;;;;;;18.70;16.70;;;;;;;;;;5033028;28;20030;-61
2022/12/26 10:14:31;;;;;;;19.45;15.63;;;;;;;;;;5032260;28;20429;-63
2022/12/26 10:17:16;;;;;;;18.35;14.90;;;;;;;;;;5032606;28;20038;-62
2022/12/26 10:19:56;;;;;;;19.92;14.90;;;;;;;;;;5032775;28;20112;-63
2022/12/26 10:22:28;;;;;;;17.25;14.77;;;;;;;;;;5032470;28;20135;-64
2022/12/26 10:24:56;;;;;;;17.15;15.07;;;;;;;;;;5031914;28;20049;-64
2022/12/26 10:27:24;;;;;;;18.43;14.33;;;;;;;;;;5014689;28;20493;-64
2022/12/26 10:29:58;;;;;;;19.33;15.07;;;;;;;;;;5032698;28;20025;-64
2022/12/26 10:32:29;;;;;;;18.45;15.13;;;;;;;;;;5032977;28;20053;-63
2022/12/26 10:34:56;;;;;;;18.35;13.00;;;;;;;;;;5014336;28;20025;-67
2022/12/26 10:37:27;;;;;;;17.52;13.55;;;;;;;;;;5033151;28;20432;-64
2022/12/26 10:39:56;;;;;;;17.08;13.48;;;;;;;;;;5032363;28;20057;-70
2022/12/26 10:42:21;;;;;;;;;;;;;;;;;;5014631;28;20099;-67
2022/12/26 10:44:47;;;;;;;17.05;10.75;;;;;;;;;;5013923;28;19963;-62
2022/12/26 10:47:19;;;;;;;15.27;10.93;;;;;;;;;;5032115;28;20028;-62
2022/12/26 10:49:46;;;;;;;15.55;7.43;;;;;;;;;;5031638;28;20388;-67
2022/12/26 10:52:13;;;;;;;15.43;8.65;;;;;;;;;;5032046;28;20506;-67
2022/12/26 10:54:39;;;;;;;15.95;12.30;;;;;;;;;;5013840;28;20091;-66
2022/12/26 10:57:07;;;;;;;17.77;13.30;;;;;;;;;;5014362;28;20075;-66
2022/12/26 10:59:41;;;;;;;17.97;14.60;;;;;;;;;;5032079;28;20148;-66
2022/12/26 11:02:12;;;;;;;15.75;7.95;;;;;;;;;;5014438;28;20111;-67
2022/12/26 11:04:38;;;;;;;15.20;7.80;;;;;;;;;;5013914;28;20025;-69
2022/12/26 11:07:08;;;;;;;18.17;7.78;;;;;;;;;;5032046;28;20113;-69
2022/12/26 11:09:37;;;;;;;20.55;8.07;;;;;;;;;;5032019;28;20052;-67
2022/12/26 11:12:04;;;;;;;14.63;7.97;;;;;;;;;;5014457;28;20052;-67
2022/12/26 11:14:40;;;;;;;20.50;8.05;;;;;;;;;;5031301;28;20033;-67
2022/12/26 11:17:09;;;;;;;16.50;7.90;;;;;;;;;;5014004;28;20032;-67
2022/12/26 11:19:37;;;;;;;18.50;7.88;;;;;;;;;;5031961;28;20183;-69
2022/12/26 11:22:23;;;;;;;16.52;7.72;;;;;;;;;;5031431;28;20036;-68
2022/12/26 11:25:13;;;;;;;13.73;7.63;;;;;;;;;;5013128;28;20029;-68
2022/12/26 11:27:43;;;;;;;16.05;8.00;;;;;;;;;;5021390;28;20440;-67
2022/12/26 11:30:27;;;;;;;16.95;8.27;;;;;;;;;;5031592;28;20022;-69
2022/12/26 11:33:06;;;;;;;14.90;7.40;;;;;;;;;;5031411;28;20485;-68
2022/12/26 11:35:36;;;;;;;19.30;9.70;;;;;;;;;;5031588;28;20025;-65
2022/12/26 11:38:02;;;;;;;16.98;9.90;;;;;;;;;;5031496;28;20022;-65
2022/12/26 11:40:31;;;;;;;16.33;10.10;;;;;;;;;;5013597;28;20026;-65
2022/12/26 11:42:58;;;;;;;14.45;9.40;;;;;;;;;;5013507;28;20112;-65
2022/12/26 11:45:27;;;;;;;15.32;9.50;;;;;;;;;;5029081;28;20030;-65
2022/12/26 11:47:54;;;;;;;17.90;12.57;;;;;;;;;;5031342;28;20026;-65
2022/12/26 11:50:21;;;;;;;14.82;9.40;;;;;;;;;;5037626;22;20050;-64
2022/12/26 11:52:51;;;;;;;16.15;9.95;;;;;;;;;;4990732;28;20410;-64
2022/12/26 11:55:23;;;;;;;18.30;10.30;;;;;;;;;;4990125;28;20479;-64
2022/12/26 11:58:05;;;;;;;16.90;10.60;;;;;;;;;;4989597;28;20022;-64
2022/12/26 12:00:31;;;;;;;16.42;11.90;;;;;;;;;;4988880;28;20054;-62
2022/12/26 12:02:58;;;;;;;15.43;12.30;;;;;;;;;;4992553;28;20488;-61
2022/12/26 12:05:32;;;;;;;16.77;14.60;;;;;;;;;;4993870;28;20026;-61
2022/12/26 12:08:07;;;;;;;17.58;15.65;;;;;;;;;;4993620;28;20093;-61
2022/12/26 12:10:51;;;;;;;18.92;16.92;;;;;;;;;;4993507;28;20037;-60
2022/12/26 12:13:23;;;;;;;20.30;17.83;;;;;;;;;;4993196;28;20574;-64
2022/12/26 12:16:04;;;;;;;19.63;16.75;;;;;;;;;;4299722;28;10000746;-63
2022/12/26 12:18:42;;;;;;;18.73;16.73;;;;;;;;;;4972220;28;20482;-63
2022/12/26 12:21:20;;;;;;;17.48;15.57;;;;;;;;;;4990508;28;20091;-62
2022/12/26 12:23:59;;;;;;;17.88;15.45;;;;;;;;;;4969877;28;20110;-61
2022/12/26 12:26:32;;;;;;;29.90;27.10;;;;;;;;;;5003554;28;20407;-56
2022/12/26 12:29:16;;;;;;;45.75;42.25;;;;;;;;;;4971635;28;20395;-58
2022/12/26 12:31:45;;;;;;;49.80;46.28;;;;;;;;;;5005513;28;20033;-63
2022/12/26 12:34:11;;;;;;;48.90;45.40;;;;;;;;;;5002692;28;20034;-60
2022/12/26 12:36:37;;;;;;;49.22;45.63;;;;;;;;;;5009517;28;20125;-65
2022/12/26 12:39:06;;;;;;;51.15;47.13;;;;;;;;;;5010622;28;20480;-64
2022/12/26 12:41:51;;;;;;;53.63;49.92;;;;;;;;;;5011016;28;20489;-63
2022/12/26 12:44:26;;;;;;;47.83;44.20;;;;;;;;;;5010174;28;20022;-64
2022/12/26 12:46:52;;;;;;;47.10;43.72;;;;;;;;;;5009829;28;20048;-64
2022/12/26 12:49:24;;;;;;;47.00;43.75;;;;;;;;;;5011065;28;20026;-63
2022/12/26 12:51:54;;;;;;;47.47;44.13;;;;;;;;;;5010005;28;20061;-64
2022/12/26 12:54:20;;;;;;;43.85;40.55;;;;;;;;;;5008879;28;20087;-65
2022/12/26 12:57:07;;;;;;;43.88;40.42;;;;;;;;;;5009158;28;20037;-65
2022/12/26 12:59:33;;;;;;;41.30;38.20;;;;;;;;;;5009347;28;20101;-65
2022/12/26 13:02:02;;;;;;;40.83;37.63;;;;;;;;;;5010002;28;20032;-65
2022/12/26 13:04:48;;;;;;;39.78;36.88;;;;;;;;;;5011695;28;20022;-64
2022/12/26 13:07:18;;;;;;;40.70;37.33;;;;;;;;;;5012772;28;20034;-62
2022/12/26 13:09:47;;;;;;;40.05;36.58;;;;;;;;;;5013526;28;20038;-63
2022/12/26 13:12:34;;;;;;;37.03;34.03;;;;;;;;;;5013367;28;20028;-63
2022/12/26 13:15:02;;;;;;;34.90;31.83;;;;;;;;;;5012235;28;20398;-64
2022/12/26 13:17:32;;;;;;;34.87;31.97;;;;;;;;;;5013269;28;20026;-63
2022/12/26 13:20:04;;;;;;;37.28;33.83;;;;;;;;;;5013072;28;20022;-64
2022/12/26 13:25:24;;;;;;;34.00;31.17;;;;;;;;;;4981956;28;20048;-64
2022/12/26 13:27:51;;;;;;;35.88;32.78;;;;;;;;;;4993421;28;20030;-66
2022/12/26 13:30:17;;;;;;;34.90;32.00;;;;;;;;;;4993256;28;20114;-63
2022/12/26 13:32:43;;;;;;;34.45;31.75;;;;;;;;;;4993453;28;20487;-64
2022/12/26 13:35:29;;;;;;;33.75;30.55;;;;;;;;;;4973248;28;20037;-65
2022/12/26 13:37:56;;;;;;;34.20;30.55;;;;;;;;;;4973845;28;20023;-65
2022/12/26 13:40:28;;;;;;;30.40;27.90;;;;;;;;;;4973879;28;20491;-65
2022/12/26 13:45:38;;;;;;;31.52;28.67;;;;;;;;;;4974097;28;20029;-65
2022/12/26 13:48:16;;;;;;;31.73;29.10;;;;;;;;;;4973885;28;20019;-63
2022/12/26 13:50:49;;;;;;;31.17;28.58;;;;;;;;;;4973705;28;20039;-65
2022/12/26 13:53:24;;;;;;;31.85;29.17;;;;;;;;;;4639872;28;9999644;-65
2022/12/26 13:56:01;;;;;;;30.20;27.67;;;;;;;;;;4989913;28;20475;-62
2022/12/26 13:58:27;;;;;;;29.80;27.20;;;;;;;;;;4989964;28;20455;-65
2022/12/26 14:00:55;;;;;;;31.52;28.70;;;;;;;;;;4990078;28;20426;-66
2022/12/26 14:03:21;;;;;;;;;;;;;;;;;;4989326;28;20018;-66
2022/12/26 14:06:06;;;;;;;32.10;29.35;;;;;;;;;;4989864;28;20008;-69
2022/12/26 14:08:41;;;;;;;31.88;29.17;;;;;;;;;;4990101;28;20073;-63
2022/12/26 14:11:26;;;;;;;33.00;30.40;;;;;;;;;;4988876;28;20026;-64
2022/12/26 14:14:07;;;;;;;30.30;27.70;;;;;;;;;;4989231;28;20030;-64
2022/12/26 14:16:53;;;;;;;29.38;26.77;;;;;;;;;;4989161;28;20026;-65
2022/12/26 14:19:40;;;;;;;31.77;29.20;;;;;;;;;;4989822;28;20087;-64
2022/12/26 14:22:06;;;;;;;31.10;28.47;;;;;;;;;;4989354;28;20097;-63
2022/12/26 14:24:51;;;;;;;31.75;29.05;;;;;;;;;;4988297;28;20769;-64
2022/12/26 14:27:31;;;;;;;30.55;27.77;;;;;;;;;;4989651;28;20030;-63
2022/12/26 14:30:18;;;;;;;31.58;28.88;;;;;;;;;;4989825;28;20023;-65
2022/12/26 14:32:47;;;;;;;32.13;29.33;;;;;;;;;;4989516;28;20800;-65
2022/12/26 14:35:23;;;;;;;33.08;30.30;;;;;;;;;;5008417;28;20087;-66
2022/12/26 14:37:49;;;;;;;32.63;29.52;;;;;;;;;;5009111;28;20053;-66
2022/12/26 14:40:15;;;;;;;29.95;27.38;;;;;;;;;;5007263;28;20069;-66
2022/12/26 14:43:11;;;;;;;28.50;25.90;;;;;;;;;;5008861;28;20053;-66
2022/12/26 14:45:37;;;;;;;29.10;26.10;;;;;;;;;;5009063;28;20068;-66
2022/12/26 14:48:23;;;;;;;26.88;24.08;;;;;;;;;;5008820;28;20026;-67
2022/12/26 14:50:50;;;;;;;26.20;23.73;;;;;;;;;;5008400;28;20697;-66
2022/12/26 14:53:19;;;;;;;25.17;22.67;;;;;;;;;;4993107;28;20026;-65
2022/12/26 14:55:50;;;;;;;25.33;22.65;;;;;;;;;;4989290;28;20057;-65
2022/12/26 14:58:29;;;;;;;24.63;22.02;;;;;;;;;;4988992;28;20045;-66
2022/12/26 15:00:56;;;;;;;24.52;22.10;;;;;;;;;;4988522;28;20030;-67
2022/12/26 15:03:25;;;;;;;23.25;20.95;;;;;;;;;;4987284;28;20097;-66
2022/12/26 15:05:51;;;;;;;22.70;20.50;;;;;;;;;;4988230;28;20014;-64
2022/12/26 15:08:31;;;;;;;24.30;22.02;;;;;;;;;;4988030;28;20106;-66
2022/12/26 15:10:57;;;;;;;23.90;21.70;;;;;;;;;;4987743;28;20022;-64
2022/12/26 15:13:26;;;;;;;23.95;21.52;;;;;;;;;;4988087;28;20494;-66
2022/12/26 15:16:05;;;;;;;23.40;21.00;;;;;;;;;;4987880;28;20102;-68
2022/12/26 15:18:30;;;;;;;;;;;;;;;;;;4988246;28;20026;-66
2022/12/26 15:21:07;;;;;;;22.52;19.92;;;;;;;;;;4990550;28;19910;-64
2022/12/26 15:23:46;;;;;;;21.67;19.50;;;;;;;;;;4990835;28;20038;-65
2022/12/26 15:26:21;;;;;;;23.42;19.95;;;;;;;;;;4991892;28;20073;-65
2022/12/26 15:28:47;;;;;;;22.45;20.10;;;;;;;;;;4989242;28;20125;-66
2022/12/26 15:31:31;;;;;;;21.50;19.08;;;;;;;;;;4990414;28;20056;-67
2022/12/26 15:34:00;;;;;;;19.35;17.17;;;;;;;;;;4999484;28;20451;-65
2022/12/26 15:36:26;;;;;;;22.20;17.10;;;;;;;;;;5009574;28;20056;-65
2022/12/26 15:38:57;;;;;;;20.75;16.25;;;;;;;;;;5010244;28;20029;-65
2022/12/26 15:41:32;;;;;;;31.63;16.00;;;;;;;;;;5008588;28;20034;-64
2022/12/26 15:44:07;;;;;;;20.15;15.95;;;;;;;;;;5010352;28;20494;-65
2022/12/26 15:46:35;;;;;;;21.65;12.20;;;;;;;;;;5009512;28;20367;-66
2022/12/26 15:49:01;;;;;;;18.70;12.45;;;;;;;;;;5010761;28;20109;-67
2022/12/26 15:51:48;;;;;;;20.75;12.15;;;;;;;;;;5010405;28;20160;-64
2022/12/26 15:54:23;;;;;;;20.20;13.00;;;;;;;;;;5009753;28;20410;-67
2022/12/26 15:57:08;;;;;;;18.08;12.43;;;;;;;;;;5010579;28;20064;-65
2022/12/26 15:59:37;;;;;;;18.23;11.80;;;;;;;;;;5009184;28;20528;-65
2022/12/26 16:02:10;;;;;;;19.10;13.32;;;;;;;;;;5010495;28;20034;-64
2022/12/26 16:04:41;;;;;;;16.77;11.15;;;;;;;;;;5009213;28;20398;-65
2022/12/26 16:07:07;;;;;;;22.08;11.23;;;;;;;;;;5008879;28;20045;-64
2022/12/26 16:09:44;;;;;;;19.30;11.70;;;;;;;;;;5008848;28;20026;-64
2022/12/26 16:12:19;;;;;;;22.77;11.68;;;;;;;;;;5010028;28;20492;-65
2022/12/26 16:14:45;;;;;;;20.40;11.00;;;;;;;;;;5009287;28;20084;-63
2022/12/26 16:17:14;;;;;;;21.65;10.82;;;;;;;;;;5008505;28;20034;-65
2022/12/26 16:19:50;;;;;;;20.55;11.75;;;;;;;;;;5009873;28;20026;-63
2022/12/26 16:25:02;;;;;;;19.35;10.18;;;;;;;;;;4986932;28;20045;-66
2022/12/26 16:27:29;;;;;;;17.88;10.43;;;;;;;;;;4987615;28;20026;-65
2022/12/26 16:30:01;;;;;;;18.00;10.30;;;;;;;;;;4985960;28;20030;-65
2022/12/26 16:32:33;;;;;;;16.17;9.52;;;;;;;;;;4985223;28;20719;-65
2022/12/26 16:34:59;;;;;;;16.20;9.93;;;;;;;;;;5003413;28;20037;-65
2022/12/26 16:37:26;;;;;;;20.08;11.30;;;;;;;;;;5006573;28;20259;-67
2022/12/26 16:40:05;;;;;;;24.45;11.50;;;;;;;;;;4986863;28;20509;-64
2022/12/26 16:42:32;;;;;;;17.52;9.70;;;;;;;;;;4987187;28;20026;-64
2022/12/26 16:44:59;;;;;;;18.23;9.88;;;;;;;;;;4986336;28;20025;-65